Time;durP1;ratioP1;P1;durP2;ratioP2;P2;SDS_P1;SDS_P2;PMS_P1;PMS_P2;Temp;Humidity;BMP_temperature;BMP_pressure;BME280_temperature;BME280_humidity;BME280_pressure;Samples;Min_cycle;Max_cycle;Signal;HPM_P1;HPM_P2
2022/05/25 00:05:30;;;;;;;12.43;8.35;;;9.60;99.90;;;;;;4647505;22;20059;-86
2022/05/25 00:08:51;;;;;;;13.75;7.95;;;9.70;99.90;;;;;;1851976;23;20474;-86
2022/05/25 00:11:17;;;;;;;11.57;8.00;;;9.60;99.90;;;;;;3894108;23;20056;-87
2022/05/25 00:13:43;;;;;;;13.82;8.77;;;9.60;99.90;;;;;;4922990;29;20070;-86
2022/05/25 00:16:09;;;;;;;13.82;8.63;;;9.70;99.90;;;;;;4955433;29;20046;-86
2022/05/25 00:18:34;;;;;;;12.70;8.40;;;9.50;99.90;;;;;;4941182;29;20067;-86
2022/05/25 00:21:04;;;;;;;12.07;7.75;;;9.50;99.90;;;;;;4942439;29;20036;-86
2022/05/25 00:23:30;;;;;;;11.73;7.85;;;9.50;99.90;;;;;;4938967;29;20103;-86
2022/05/25 00:25:56;;;;;;;13.43;8.52;;;9.40;99.90;;;;;;4938833;29;20051;-87
2022/05/25 00:28:22;;;;;;;12.70;8.38;;;9.40;99.90;;;;;;4923199;29;20044;-86
2022/05/25 00:30:48;;;;;;;13.15;8.35;;;9.40;99.90;;;;;;4938711;29;20055;-86
2022/05/25 00:33:14;;;;;;;12.93;8.77;;;9.40;99.90;;;;;;4955001;29;20498;-86
2022/05/25 00:35:41;;;;;;;16.60;9.25;;;9.30;99.90;;;;;;4938656;29;20073;-86
2022/05/25 00:38:08;;;;;;;12.77;8.20;;;9.90;99.90;;;;;;4939148;29;20036;-87
2022/05/25 00:40:40;;;;;;;16.45;8.98;;;9.30;99.90;;;;;;4938678;29;20067;-87
2022/05/25 00:43:07;;;;;;;15.10;9.63;;;9.30;99.90;;;;;;4922503;29;20043;-86
2022/05/25 00:45:50;;;;;;;17.63;9.75;;;9.30;99.90;;;;;;4954437;29;20048;-86
2022/05/25 00:48:26;;;;;;;18.23;9.93;;;9.40;99.90;;;;;;4938298;29;20054;-86
2022/05/25 00:53:51;;;;;;;16.67;9.68;;;9.30;99.90;;;;;;4938120;29;20051;-87
2022/05/25 00:56:20;;;;;;;16.58;9.45;;;9.30;99.90;;;;;;4954327;29;20075;-87
2022/05/25 00:59:10;;;;;;;14.57;8.70;;;9.40;99.90;;;;;;4938631;29;20142;-86
2022/05/25 01:01:36;;;;;;;19.33;9.98;;;9.70;99.90;;;;;;4937577;29;20119;-86
2022/05/25 01:04:02;;;;;;;16.05;10.38;;;9.30;99.90;;;;;;4922292;29;20040;-87
2022/05/25 01:06:52;;;;;;;14.77;9.43;;;9.80;99.90;;;;;;4938286;29;20048;-87
2022/05/25 01:09:45;;;;;;;15.15;9.18;;;9.30;99.90;;;;;;4938197;29;20054;-87
2022/05/25 01:12:11;;;;;;;16.33;9.30;;;9.40;99.90;;;;;;4941167;29;20142;-87
2022/05/25 01:14:55;;;;;;;15.63;9.82;;;9.20;99.90;;;;;;4941544;29;20194;-87
2022/05/25 01:17:35;;;;;;;16.50;10.07;;;9.10;99.90;;;;;;4941965;29;20043;-88
2022/05/25 01:20:14;;;;;;;16.30;9.60;;;9.10;99.90;;;;;;4941241;29;20082;-88
2022/05/25 01:22:58;;;;;;;12.88;8.98;;;9.00;99.90;;;;;;4944614;29;20051;-88
2022/05/25 01:26:02;;;;;;;16.27;9.45;;;9.10;99.90;;;;;;4951837;29;20067;-87
2022/05/25 01:28:36;;;;;;;16.40;9.98;;;9.10;99.90;;;;;;4949424;29;20075;-88
2022/05/25 01:31:09;;;;;;;16.00;10.13;;;9.00;99.90;;;;;;4948114;29;20047;-88
2022/05/25 01:33:49;;;;;;;18.27;10.63;;;8.90;99.90;;;;;;4924914;29;20086;-88
2022/05/25 01:36:44;;;;;;;19.98;10.95;;;9.00;99.90;;;;;;4925686;29;20047;-88
2022/05/25 01:39:16;;;;;;;21.42;10.75;;;8.90;99.90;;;;;;4922672;29;20128;-88
2022/05/25 01:41:58;;;;;;;18.63;11.07;;;8.90;99.90;;;;;;4940784;29;20138;-88
2022/05/25 01:44:35;;;;;;;19.75;10.55;;;8.90;99.90;;;;;;4940592;29;20118;-88
2022/05/25 01:47:06;;;;;;;24.55;11.50;;;8.90;99.90;;;;;;4940834;29;20454;-88
2022/05/25 01:49:55;;;;;;;19.67;10.75;;;8.90;99.90;;;;;;4941020;29;20061;-88
2022/05/25 01:52:28;;;;;;;22.83;11.38;;;8.90;99.90;;;;;;4924907;29;20118;-88
2022/05/25 01:54:58;;;;;;;22.88;12.18;;;9.10;99.90;;;;;;4924774;29;20046;-88
2022/05/25 01:57:27;;;;;;;22.67;12.35;;;8.80;99.90;;;;;;4940402;29;20051;-88
2022/05/25 01:59:53;;;;;;;22.60;11.63;;;8.90;99.90;;;;;;4940270;29;20538;-88
2022/05/25 02:05:11;;;;;;;22.42;12.57;;;8.80;99.90;;;;;;4940077;29;20047;-88
2022/05/25 02:08:27;;;;;;;23.15;12.68;;;8.80;99.90;;;;;;4956498;29;20398;-88
2022/05/25 02:10:55;;;;;;;24.83;13.57;;;8.80;99.90;;;;;;4918777;29;20138;-88
2022/05/25 02:13:30;;;;;;;20.23;11.50;;;8.80;99.90;;;;;;4955939;29;20086;-88
2022/05/25 02:16:07;;;;;;;22.58;12.75;;;8.80;99.90;;;;;;4943783;29;20080;-88
2022/05/25 02:19:06;;;;;;;25.58;13.85;;;8.70;99.90;;;;;;4960051;29;20395;-88
2022/05/25 02:21:40;;;;;;;24.77;13.55;;;8.70;99.90;;;;;;4924475;29;20055;-88
2022/05/25 02:24:28;;;;;;;23.90;12.68;;;9.20;99.90;;;;;;4924415;29;20047;-88
2022/05/25 02:27:19;;;;;;;25.20;14.10;;;8.60;99.90;;;;;;4924453;29;20043;-88
2022/05/25 02:29:48;;;;;;;24.83;13.35;;;8.70;99.90;;;;;;4939843;29;20042;-88
2022/05/25 02:32:17;;;;;;;28.13;14.13;;;8.70;99.90;;;;;;4940167;29;20054;-88
2022/05/25 02:34:47;;;;;;;25.40;13.98;;;8.70;99.90;;;;;;4927530;29;20493;-88
2022/05/25 02:37:14;;;;;;;26.15;14.40;;;8.60;99.90;;;;;;4924905;29;20050;-88
2022/05/25 02:39:41;;;;;;;24.85;13.98;;;8.80;99.90;;;;;;4956412;29;20047;-88
2022/05/25 02:42:15;;;;;;;29.50;15.13;;;8.70;99.90;;;;;;4956873;29;20550;-88
2022/05/25 02:44:42;;;;;;;29.65;14.98;;;8.60;99.90;;;;;;4923690;29;20443;-88
2022/05/25 02:47:08;;;;;;;29.25;15.15;;;9.00;99.90;;;;;;4955740;29;20410;-88
2022/05/25 02:49:34;;;;;;;33.42;16.52;;;8.60;99.90;;;;;;4939732;29;20047;-88
2022/05/25 02:52:05;;;;;;;31.58;15.73;;;8.60;99.90;;;;;;4939576;29;20044;-88
2022/05/25 02:54:31;;;;;;;31.48;16.70;;;8.60;99.90;;;;;;4939853;29;20448;-89
2022/05/25 02:56:56;;;;;;;34.63;18.58;;;8.70;99.90;;;;;;4923635;29;20075;-88
2022/05/25 02:59:22;;;;;;;34.15;17.08;;;8.70;99.90;;;;;;4955391;29;20098;-88
2022/05/25 03:01:47;;;;;;;32.92;18.02;;;8.70;99.90;;;;;;4955318;29;20562;-88
2022/05/25 03:04:13;;;;;;;32.75;17.65;;;8.70;99.90;;;;;;4955129;29;20058;-88
2022/05/25 03:06:39;;;;;;;37.65;18.52;;;9.00;99.90;;;;;;4955142;29;20463;-88
2022/05/25 03:09:04;;;;;;;33.70;17.48;;;9.00;99.90;;;;;;4923380;29;20147;-88
2022/05/25 03:11:30;;;;;;;32.70;16.83;;;8.70;99.90;;;;;;4938747;29;20376;-88
2022/05/25 03:13:56;;;;;;;34.30;17.73;;;9.00;99.90;;;;;;4923010;29;20043;-88
2022/05/25 03:16:22;;;;;;;34.47;17.60;;;8.80;99.90;;;;;;4954794;29;20058;-88
2022/05/25 03:18:50;;;;;;;34.10;18.90;;;8.80;99.90;;;;;;4939087;29;20399;-88
2022/05/25 03:21:19;;;;;;;39.95;19.05;;;8.90;99.90;;;;;;4939175;29;20058;-89
2022/05/25 03:23:44;;;;;;;36.50;18.42;;;8.80;99.90;;;;;;4955066;29;20087;-88
2022/05/25 03:26:10;;;;;;;33.47;17.80;;;8.80;99.90;;;;;;4938934;29;20070;-88
2022/05/25 03:28:36;;;;;;;33.33;18.00;;;8.80;99.90;;;;;;4938794;29;20043;-88
2022/05/25 03:31:03;;;;;;;35.53;17.95;;;8.90;99.90;;;;;;4938698;29;20055;-88
2022/05/25 03:33:29;;;;;;;30.83;17.58;;;9.30;99.90;;;;;;4938979;29;20390;-88
2022/05/25 03:35:55;;;;;;;34.70;17.88;;;8.80;99.90;;;;;;4954924;29;20458;-88
2022/05/25 03:38:23;;;;;;;31.33;17.38;;;8.80;99.90;;;;;;4954749;29;20076;-88
2022/05/25 03:40:50;;;;;;;33.67;17.80;;;9.00;99.90;;;;;;4938203;29;20058;-89
2022/05/25 03:43:18;;;;;;;30.63;16.48;;;8.80;99.90;;;;;;4954389;29;20399;-89
2022/05/25 03:45:45;;;;;;;32.35;16.55;;;8.80;99.90;;;;;;4922915;29;20134;-88
2022/05/25 03:48:11;;;;;;;31.42;17.00;;;8.80;99.90;;;;;;4954511;29;20051;-88
2022/05/25 03:50:40;;;;;;;29.85;16.73;;;8.80;99.90;;;;;;4922813;29;20118;-88
2022/05/25 03:53:12;;;;;;;25.67;15.93;;;8.70;99.90;;;;;;4938387;29;20039;-88
2022/05/25 03:55:38;;;;;;;32.95;17.42;;;8.90;99.90;;;;;;4938757;29;20138;-89
2022/05/25 03:58:04;;;;;;;29.90;16.50;;;8.90;99.90;;;;;;4922700;29;20043;-88
2022/05/25 04:00:30;;;;;;;28.58;16.02;;;8.70;99.90;;;;;;4938426;29;20050;-88
2022/05/25 04:02:59;;;;;;;29.35;16.10;;;8.80;99.90;;;;;;4938518;29;20051;-88
2022/05/25 04:05:26;;;;;;;29.33;15.95;;;8.70;99.90;;;;;;4922581;29;20063;-88
2022/05/25 04:07:55;;;;;;;30.98;16.63;;;8.90;99.90;;;;;;4938386;29;20043;-88
2022/05/25 04:10:21;;;;;;;28.40;15.43;;;8.70;99.90;;;;;;4922217;29;20058;-88
2022/05/25 04:12:47;;;;;;;31.63;16.30;;;9.30;99.90;;;;;;4954211;29;20157;-88
2022/05/25 04:15:16;;;;;;;30.50;16.65;;;8.80;99.90;;;;;;4938173;29;20076;-88
2022/05/25 04:17:42;;;;;;;30.30;16.83;;;9.20;99.90;;;;;;4922537;29;20039;-88
2022/05/25 04:20:08;;;;;;;30.70;16.10;;;8.90;99.90;;;;;;4938508;29;20372;-88
2022/05/25 04:22:35;;;;;;;29.20;16.80;;;8.90;99.90;;;;;;4922340;29;20043;-88
2022/05/25 04:25:04;;;;;;;29.23;16.65;;;9.00;99.90;;;;;;4954211;29;20043;-88
2022/05/25 04:27:30;;;;;;;32.03;16.63;;;9.00;99.90;;;;;;4922238;29;20047;-88
2022/05/25 04:29:55;;;;;;;28.13;16.95;;;9.10;99.90;;;;;;4938122;29;20086;-88
2022/05/25 04:32:21;;;;;;;30.50;16.75;;;9.20;99.90;;;;;;4954115;29;20086;-88
2022/05/25 04:34:47;;;;;;;27.80;15.80;;;9.10;99.90;;;;;;4954141;29;20074;-89
2022/05/25 04:40:12;;;;;;;27.05;16.00;;;9.70;99.90;;;;;;4937905;29;20055;-88
2022/05/25 04:42:39;;;;;;;27.90;15.43;;;9.30;99.90;;;;;;4938755;29;20110;-88
2022/05/25 04:45:05;;;;;;;33.17;16.88;;;9.40;99.90;;;;;;4937996;29;20043;-88
2022/05/25 04:47:33;;;;;;;28.85;16.20;;;9.40;99.90;;;;;;4954233;29;20109;-88
2022/05/25 04:50:00;;;;;;;26.42;16.38;;;9.50;99.90;;;;;;4938446;29;20409;-88
2022/05/25 04:52:27;;;;;;;27.45;15.70;;;9.60;99.90;;;;;;4941731;29;20050;-88
2022/05/25 04:54:53;;;;;;;27.25;15.43;;;9.70;99.90;;;;;;4942341;29;20479;-88
2022/05/25 04:57:19;;;;;;;28.73;16.17;;;9.80;99.90;;;;;;4925590;29;20043;-88
2022/05/25 04:59:49;;;;;;;27.05;15.68;;;9.80;99.90;;;;;;4957569;29;20102;-88
2022/05/25 05:02:15;;;;;;;25.55;15.30;;;10.00;99.90;;;;;;4957639;29;20395;-88
2022/05/25 05:04:41;;;;;;;27.08;15.63;;;10.00;99.90;;;;;;4925429;29;20159;-88
2022/05/25 05:07:08;;;;;;;26.90;15.63;;;10.30;99.90;;;;;;4940903;29;20090;-88
2022/05/25 05:09:36;;;;;;;31.58;15.82;;;10.30;99.90;;;;;;4940980;29;20048;-87
2022/05/25 05:12:02;;;;;;;24.05;14.63;;;10.30;99.90;;;;;;4940977;29;20491;-88
2022/05/25 05:14:28;;;;;;;24.40;14.30;;;10.40;99.90;;;;;;4957269;29;20051;-88
2022/05/25 05:17:01;;;;;;;24.92;14.32;;;10.50;99.90;;;;;;4941118;29;20049;-88
2022/05/25 05:19:28;;;;;;;25.38;14.45;;;10.60;99.90;;;;;;4941168;29;20059;-88
2022/05/25 05:22:00;;;;;;;23.77;13.63;;;10.80;99.90;;;;;;4940842;29;20039;-88
2022/05/25 05:24:27;;;;;;;24.60;15.02;;;11.20;99.90;;;;;;4956899;29;20066;-88
2022/05/25 05:26:53;;;;;;;22.75;13.85;;;11.10;99.90;;;;;;4941108;29;20134;-88
2022/05/25 05:29:19;;;;;;;22.85;13.88;;;11.00;99.90;;;;;;4940750;29;20068;-88
2022/05/25 05:31:45;;;;;;;19.70;12.93;;;11.30;99.90;;;;;;4925209;29;20058;-88
2022/05/25 05:34:12;;;;;;;23.63;14.30;;;11.10;99.90;;;;;;4956983;29;20134;-87
2022/05/25 05:36:44;;;;;;;21.40;13.93;;;11.30;99.90;;;;;;4940558;29;20051;-87
2022/05/25 05:39:11;;;;;;;25.67;14.25;;;11.70;99.90;;;;;;4956378;29;20495;-87
2022/05/25 05:41:52;;;;;;;22.88;13.43;;;11.50;99.90;;;;;;4940493;29;20097;-87
2022/05/25 05:44:25;;;;;;;20.77;13.00;;;11.60;99.90;;;;;;4940649;29;20111;-87
2022/05/25 05:46:53;;;;;;;23.20;13.10;;;11.60;99.90;;;;;;4941982;29;20046;-87
2022/05/25 05:49:19;;;;;;;19.88;13.52;;;11.90;99.90;;;;;;4940404;29;20110;-87
2022/05/25 05:51:54;;;;;;;20.15;13.38;;;11.80;99.90;;;;;;4941583;29;20043;-87
2022/05/25 05:54:20;;;;;;;20.88;13.30;;;11.90;99.90;;;;;;4956898;29;20051;-87
2022/05/25 05:56:46;;;;;;;22.60;12.10;;;12.00;99.90;;;;;;4940502;29;20049;-87
2022/05/25 05:59:11;;;;;;;21.20;11.98;;;12.10;99.90;;;;;;4956685;29;20078;-87
2022/05/25 06:01:37;;;;;;;19.90;12.30;;;12.20;99.90;;;;;;4940363;29;20490;-87
2022/05/25 06:04:03;;;;;;;20.13;13.02;;;12.30;99.90;;;;;;4955922;28;20047;-87
2022/05/25 06:06:29;;;;;;;17.58;11.93;;;12.20;99.90;;;;;;4924538;29;20058;-87
2022/05/25 06:08:58;;;;;;;17.65;11.88;;;12.70;99.90;;;;;;4955989;29;20040;-88
2022/05/25 06:11:24;;;;;;;18.23;11.45;;;12.50;99.90;;;;;;4939880;29;20446;-88
2022/05/25 06:13:50;;;;;;;18.35;12.10;;;12.60;99.90;;;;;;4940130;29;20190;-88
2022/05/25 06:21:44;;;;;;;21.17;12.63;;;12.90;99.90;;;;;;4940225;29;20062;-87
2022/05/25 06:24:09;;;;;;;22.30;11.52;;;13.10;99.90;;;;;;4939751;29;20043;-87
2022/05/25 06:26:35;;;;;;;17.08;12.00;;;13.30;99.90;;;;;;4924149;29;20402;-87
2022/05/25 06:29:02;;;;;;;17.13;11.25;;;13.40;99.90;;;;;;4924216;29;20050;-85
2022/05/25 06:31:29;;;;;;;18.02;11.00;;;13.40;99.90;;;;;;4939495;29;20139;-85
2022/05/25 06:33:54;;;;;;;18.98;11.38;;;13.40;99.90;;;;;;4924196;29;20111;-86
2022/05/25 06:36:26;;;;;;;16.92;10.90;;;13.40;99.90;;;;;;4924092;29;20137;-85
2022/05/25 06:38:53;;;;;;;19.00;11.95;;;13.90;99.90;;;;;;4939481;29;20044;-85
2022/05/25 06:41:19;;;;;;;19.20;11.35;;;13.40;99.90;;;;;;4956803;29;20126;-85
2022/05/25 06:43:45;;;;;;;18.67;11.65;;;13.70;99.90;;;;;;4939585;29;20142;-85
2022/05/25 06:46:12;;;;;;;20.58;13.20;;;13.90;99.90;;;;;;4939314;29;20050;-85
2022/05/25 06:48:39;;;;;;;17.67;12.82;;;13.90;99.90;;;;;;4955353;29;20549;-84
2022/05/25 06:51:12;;;;;;;19.50;12.05;;;14.10;99.90;;;;;;4955225;29;20094;-85
2022/05/25 06:53:38;;;;;;;18.83;12.48;;;14.10;99.90;;;;;;4939562;29;20069;-84
2022/05/25 06:56:04;;;;;;;18.70;12.18;;;14.20;99.90;;;;;;4955244;29;20565;-86
2022/05/25 06:58:30;;;;;;;18.85;11.95;;;14.00;99.90;;;;;;4939341;29;20047;-85
2022/05/25 07:00:55;;;;;;;17.30;12.35;;;14.10;99.90;;;;;;4938919;29;20063;-85
2022/05/25 07:03:21;;;;;;;15.85;11.98;;;14.00;99.90;;;;;;4938985;29;20048;-85
2022/05/25 07:05:47;;;;;;;17.02;12.20;;;14.00;99.90;;;;;;4961499;29;20047;-86
2022/05/25 07:08:19;;;;;;;18.80;12.75;;;14.20;99.90;;;;;;4944974;29;20133;-86
2022/05/25 07:10:45;;;;;;;17.33;11.95;;;14.10;99.90;;;;;;4954882;29;20070;-85
2022/05/25 07:16:01;;;;;;;17.10;11.95;;;14.30;99.90;;;;;;4996734;23;20089;-85
2022/05/25 07:18:28;;;;;;;15.77;11.05;;;14.60;99.90;;;;;;4989470;28;20113;-85
2022/05/25 07:21:00;;;;;;;14.73;10.55;;;14.80;99.90;;;;;;4988711;28;20073;-86
2022/05/25 07:23:26;;;;;;;11.98;9.63;;;14.90;99.90;;;;;;4957050;28;20417;-86
2022/05/25 07:25:51;;;;;;;12.02;8.40;;;15.30;99.90;;;;;;4963962;28;20047;-85
2022/05/25 07:28:17;;;;;;;13.60;8.52;;;15.30;99.90;;;;;;4976683;28;20042;-85
2022/05/25 07:30:43;;;;;;;16.98;9.50;;;15.20;99.90;;;;;;4970056;28;20055;-85
2022/05/25 07:33:09;;;;;;;11.13;8.07;;;15.20;99.90;;;;;;4981287;28;20049;-87
2022/05/25 07:35:36;;;;;;;9.13;7.32;;;15.10;99.90;;;;;;4975730;28;20147;-85
2022/05/25 07:38:03;;;;;;;8.93;6.28;;;15.20;99.90;;;;;;4975358;28;20041;-86
2022/05/25 07:40:33;;;;;;;9.82;6.30;;;15.30;99.90;;;;;;4977475;28;20414;-85
2022/05/25 07:43:03;;;;;;;7.72;5.45;;;15.80;99.90;;;;;;4985353;28;20073;-85
2022/05/25 07:45:29;;;;;;;10.93;6.00;;;15.80;99.90;;;;;;4976373;28;20169;-86
2022/05/25 07:47:54;;;;;;;8.93;4.88;;;15.80;99.90;;;;;;4975139;28;20493;-86
2022/05/25 07:50:22;;;;;;;7.05;4.80;;;15.70;99.90;;;;;;4960513;28;20047;-86
2022/05/25 07:52:52;;;;;;;7.78;4.43;;;15.70;99.90;;;;;;4971928;28;20042;-86
2022/05/25 07:55:18;;;;;;;8.13;4.90;;;15.70;99.90;;;;;;4943385;28;20069;-85
2022/05/25 07:57:44;;;;;;;7.68;4.95;;;15.60;99.90;;;;;;4958486;28;20077;-85
2022/05/25 08:00:10;;;;;;;7.38;4.38;;;15.90;99.90;;;;;;4958191;28;20047;-87
2022/05/25 08:05:43;;;;;;;6.40;4.15;;;16.20;99.90;;;;;;4974400;28;20112;-86
2022/05/25 08:08:13;;;;;;;8.15;4.60;;;16.20;99.90;;;;;;4973876;28;20419;-85
2022/05/25 08:10:40;;;;;;;5.85;3.97;;;16.30;99.90;;;;;;4956724;28;20054;-85
2022/05/25 08:13:06;;;;;;;7.68;4.43;;;16.40;99.90;;;;;;4956991;28;20051;-87
2022/05/25 08:15:33;;;;;;;9.25;4.10;;;16.50;99.90;;;;;;4959869;28;20161;-86
2022/05/25 08:17:59;;;;;;;9.20;5.05;;;16.60;99.90;;;;;;4962142;28;20058;-86
2022/05/25 08:20:25;;;;;;;7.50;4.45;;;16.50;99.90;;;;;;4956520;28;20038;-87
2022/05/25 08:22:51;;;;;;;6.30;3.90;;;16.50;99.90;;;;;;4940702;28;20101;-89
2022/05/25 08:25:19;;;;;;;7.85;4.20;;;16.50;99.90;;;;;;4962926;28;20405;-89
2022/05/25 08:27:45;;;;;;;6.38;4.38;;;16.40;99.90;;;;;;4956713;28;20051;-88
2022/05/25 08:30:20;;;;;;;8.38;4.40;;;16.90;99.90;;;;;;4976419;28;20057;-86
2022/05/25 08:32:46;;;;;;;7.00;4.13;;;16.80;99.90;;;;;;4978807;28;20042;-88
2022/05/25 08:35:13;;;;;;;8.10;4.47;;;16.90;99.90;;;;;;4955230;28;20065;-88
2022/05/25 08:37:41;;;;;;;8.15;4.43;;;16.80;99.90;;;;;;4961552;28;20057;-86
2022/05/25 08:40:09;;;;;;;6.45;4.30;;;16.50;99.90;;;;;;4978579;28;20049;-86
2022/05/25 08:43:04;;;;;;;7.15;4.70;;;16.30;99.90;;;;;;4960941;28;20043;-84
2022/05/25 08:45:43;;;;;;;10.95;4.90;;;16.20;99.90;;;;;;4955141;28;20094;-84
2022/05/25 08:48:11;;;;;;;9.05;5.82;;;16.30;99.90;;;;;;4978373;28;20105;-89
2022/05/25 08:50:38;;;;;;;8.15;6.15;;;16.20;99.90;;;;;;4978533;28;20097;-85
2022/05/25 08:53:07;;;;;;;10.07;6.40;;;16.10;99.90;;;;;;4995988;28;20038;-88
2022/05/25 08:55:50;;;;;;;10.57;6.72;;;16.00;99.90;;;;;;4969339;28;20042;-86
2022/05/25 08:58:17;;;;;;;13.23;7.50;;;15.90;99.90;;;;;;4962152;28;20057;-86
2022/05/25 09:00:46;;;;;;;8.88;6.63;;;16.10;99.90;;;;;;4969368;28;20035;-86
2022/05/25 09:03:36;;;;;;;10.68;7.13;;;16.20;99.90;;;;;;4952792;28;20054;-86
2022/05/25 09:06:12;;;;;;;8.98;6.57;;;16.60;99.90;;;;;;4962609;28;20065;-86
2022/05/25 09:08:46;;;;;;;8.15;5.65;;;16.80;99.90;;;;;;4973392;28;20042;-87
2022/05/25 09:11:19;;;;;;;8.00;5.53;;;16.90;99.90;;;;;;4959664;28;20097;-86
2022/05/25 09:14:07;;;;;;;10.20;5.65;;;16.80;99.90;;;;;;4959573;28;20038;-86
2022/05/25 09:16:36;;;;;;;10.43;6.72;;;16.70;99.90;;;;;;4959552;28;20510;-86
2022/05/25 09:19:01;;;;;;;9.80;6.43;;;16.80;99.90;;;;;;4959742;28;20054;-85
2022/05/25 09:21:31;;;;;;;8.85;6.82;;;16.70;99.90;;;;;;4943664;28;20434;-87
2022/05/25 09:24:03;;;;;;;9.23;6.32;;;16.70;99.90;;;;;;4959418;28;20429;-86
2022/05/25 09:26:29;;;;;;;11.40;6.60;;;16.80;99.90;;;;;;4959952;28;20047;-87
2022/05/25 09:28:59;;;;;;;9.10;6.25;;;17.00;99.90;;;;;;4943499;28;20053;-86
2022/05/25 09:31:31;;;;;;;9.25;6.40;;;17.30;99.90;;;;;;4959952;28;20046;-87
2022/05/25 09:34:00;;;;;;;8.75;4.90;;;17.40;99.90;;;;;;4943855;28;20047;-86
2022/05/25 09:36:35;;;;;;;8.80;4.53;;;17.20;99.90;;;;;;4959465;28;20054;-86
2022/05/25 09:39:06;;;;;;;6.80;4.65;;;17.10;99.90;;;;;;4959311;28;20042;-85
2022/05/25 09:41:33;;;;;;;10.18;5.80;;;17.00;99.90;;;;;;4959610;28;20046;-85
2022/05/25 09:44:03;;;;;;;7.03;5.80;;;17.00;99.90;;;;;;4959526;28;20557;-86
2022/05/25 09:46:34;;;;;;;8.20;5.45;;;17.00;99.90;;;;;;4959315;28;20042;-85
2022/05/25 09:49:03;;;;;;;6.93;4.50;;;17.30;99.90;;;;;;4959441;28;20390;-86
2022/05/25 09:51:32;;;;;;;7.82;4.55;;;17.50;99.90;;;;;;4959357;28;20050;-87
2022/05/25 09:54:21;;;;;;;8.38;5.72;;;17.60;99.90;;;;;;4959747;28;20045;-88
2022/05/25 09:56:50;;;;;;;7.88;4.93;;;17.60;99.90;;;;;;4951130;28;20110;-87
2022/05/25 09:59:36;;;;;;;7.75;6.05;;;17.40;99.90;;;;;;4963041;28;20042;-87
2022/05/25 10:02:23;;;;;;;10.02;6.78;;;17.30;99.90;;;;;;4959121;28;20086;-86
2022/05/25 10:04:56;;;;;;;6.93;5.43;;;17.30;99.90;;;;;;4958839;28;20069;-86
2022/05/25 10:07:35;;;;;;;9.32;6.63;;;17.40;99.90;;;;;;4942868;28;20101;-87
2022/05/25 10:10:05;;;;;;;8.02;6.15;;;17.40;99.90;;;;;;4942790;28;20057;-87
2022/05/25 10:12:53;;;;;;;9.20;6.50;;;17.50;99.90;;;;;;4958843;28;20136;-88
2022/05/25 10:15:33;;;;;;;9.30;5.72;;;17.70;99.90;;;;;;4957912;28;20065;-86
2022/05/25 10:17:59;;;;;;;7.20;5.32;;;17.90;99.90;;;;;;4958809;28;20054;-89
2022/05/25 10:20:44;;;;;;;9.35;5.40;;;18.00;99.90;;;;;;4958885;28;20050;-85
2022/05/25 10:23:24;;;;;;;6.68;5.25;;;18.00;99.90;;;;;;4942542;28;20063;-87
2022/05/25 10:25:55;;;;;;;8.55;6.15;;;18.00;99.90;;;;;;4942677;28;20138;-88
2022/05/25 10:28:32;;;;;;;9.13;5.57;;;18.00;99.90;;;;;;4942829;28;20043;-88
2022/05/25 10:37:19;;;;;;;9.93;7.05;;;18.00;99.90;;;;;;4900169;29;20055;-87
2022/05/25 10:39:55;;;;;;;9.15;6.93;;;17.70;99.90;;;;;;4900278;29;20081;-85
2022/05/25 10:42:22;;;;;;;10.63;7.00;;;17.80;99.90;;;;;;4901529;29;20048;-88
2022/05/25 10:45:01;;;;;;;9.95;7.10;;;17.70;99.90;;;;;;4900173;29;20060;-87
2022/05/25 10:47:54;;;;;;;9.43;6.68;;;17.70;99.90;;;;;;4900734;29;20107;-87
2022/05/25 10:50:37;;;;;;;7.45;6.60;;;17.50;99.90;;;;;;4900022;29;20111;-90
2022/05/25 10:53:29;;;;;;;8.52;5.97;;;17.90;99.90;;;;;;4902606;29;20105;-88
2022/05/25 10:56:00;;;;;;;9.25;6.03;;;18.30;99.90;;;;;;4900312;29;20675;-87
2022/05/25 10:58:56;;;;;;;9.13;4.60;;;18.50;99.90;;;;;;4908397;29;20056;-89
2022/05/25 11:01:54;;;;;;;8.88;5.00;;;18.80;99.90;;;;;;4912745;29;20055;-88
2022/05/25 11:04:52;;;;;;;8.40;4.43;;;18.90;99.90;;;;;;4914239;29;20056;-90
2022/05/25 11:07:27;;;;;;;6.85;3.95;;;18.70;99.90;;;;;;4903422;29;20055;-91
2022/05/25 11:10:15;;;;;;;6.05;3.70;;;18.80;99.90;;;;;;4904264;28;20637;-87
2022/05/25 11:12:55;;;;;;;8.23;3.65;;;19.00;99.90;;;;;;4943125;28;20046;-87
2022/05/25 11:15:21;;;;;;;6.68;3.80;;;19.10;99.90;;;;;;4938515;29;20047;-85
2022/05/25 11:18:08;;;;;;;3.80;1.05;;;18.50;99.90;;;;;;4938463;29;20058;-86
2022/05/25 11:20:57;;;;;;;4.72;0.98;;;18.20;99.90;;;;;;4938247;29;20059;-87
2022/05/25 11:24:10;;;;;;;3.15;0.90;;;18.40;99.90;;;;;;4954551;29;20059;-85
2022/05/25 11:27:00;;;;;;;2.97;0.75;;;18.60;99.90;;;;;;4862417;29;20052;-87
2022/05/25 11:30:17;;;;;;;4.95;0.60;;;18.60;99.90;;;;;;4846976;29;20053;-86
2022/05/25 11:33:20;;;;;;;4.63;0.70;;;18.70;99.90;;;;;;4771328;30;20186;-89
2022/05/25 11:36:10;;;;;;;8.23;1.08;;;18.80;99.90;;;;;;4771884;30;20120;-88
2022/05/25 11:39:14;;;;;;;1.92;0.73;;;18.80;99.90;;;;;;4771474;30;20043;-87
2022/05/25 11:42:08;;;;;;;3.35;0.70;;;18.70;99.90;;;;;;4756963;30;20051;-86
2022/05/25 11:45:10;;;;;;;4.35;0.70;;;18.70;99.90;;;;;;4771324;30;20059;-87
2022/05/25 11:47:51;;;;;;;2.35;0.68;;;18.70;99.90;;;;;;4771236;30;20059;-86
2022/05/25 11:50:19;;;;;;;2.03;0.60;;;18.80;99.90;;;;;;4771049;30;20051;-86
2022/05/25 11:53:31;;;;;;;2.58;0.82;;;18.80;99.90;;;;;;4771151;30;20047;-87
2022/05/25 11:56:05;;;;;;;4.07;1.00;;;18.80;99.90;;;;;;4757475;30;20090;-86
2022/05/25 11:59:08;;;;;;;4.53;0.77;;;18.80;99.90;;;;;;4748355;30;20106;-90
2022/05/25 12:01:57;;;;;;;2.85;0.82;;;19.00;99.90;;;;;;4740736;29;20079;-86
2022/05/25 12:04:34;;;;;;;6.30;1.00;;;18.80;99.90;;;;;;4827360;29;20054;-87
2022/05/25 12:07:09;;;;;;;2.28;0.90;;;18.80;99.90;;;;;;4833503;29;20053;-87
2022/05/25 12:09:43;;;;;;;3.42;0.73;;;18.80;99.90;;;;;;4891327;29;20055;-85
2022/05/25 12:12:24;;;;;;;2.20;0.65;;;18.70;99.90;;;;;;4891280;29;20064;-87
2022/05/25 12:15:00;;;;;;;3.88;0.77;;;18.60;99.90;;;;;;4901478;29;20468;-86
2022/05/25 12:17:56;;;;;;;3.20;0.70;;;18.70;99.90;;;;;;4885209;29;20101;-87
2022/05/25 12:20:41;;;;;;;3.42;0.57;;;18.80;99.90;;;;;;4885435;29;20575;-87
2022/05/25 12:23:13;;;;;;;3.67;0.90;;;18.80;99.90;;;;;;4884727;29;20068;-86
2022/05/25 12:25:48;;;;;;;3.58;0.80;;;18.60;99.90;;;;;;4900480;29;20108;-89
2022/05/25 12:28:13;;;;;;;6.18;1.42;;;18.50;99.90;;;;;;4900571;29;20484;-87
2022/05/25 12:30:44;;;;;;;3.20;0.73;;;18.50;99.90;;;;;;4950409;29;20063;-89
2022/05/25 12:33:14;;;;;;;2.20;0.70;;;18.60;99.90;;;;;;4941530;29;20074;-88
2022/05/25 12:35:41;;;;;;;3.13;0.70;;;18.60;99.90;;;;;;4957274;29;20043;-87
2022/05/25 12:38:09;;;;;;;2.08;0.70;;;18.70;99.90;;;;;;4941869;29;20051;-87
2022/05/25 12:40:51;;;;;;;2.45;0.70;;;18.60;99.90;;;;;;4941366;29;20102;-87
2022/05/25 12:43:48;;;;;;;3.60;0.88;;;18.50;99.90;;;;;;4957350;29;20058;-87
2022/05/25 12:49:08;;;;;;;2.60;0.60;;;18.30;99.90;;;;;;4957100;29;20055;-87
2022/05/25 12:51:40;;;;;;;1.95;0.50;;;18.20;99.90;;;;;;4941204;29;20085;-86
2022/05/25 12:54:18;;;;;;;2.28;0.82;;;18.20;99.90;;;;;;4957362;29;20171;-86
2022/05/25 12:56:45;;;;;;;5.57;0.82;;;18.10;99.90;;;;;;4941408;29;20442;-86
2022/05/25 12:59:13;;;;;;;5.40;0.93;;;18.10;99.90;;;;;;4941252;29;20410;-88
2022/05/25 13:01:41;;;;;;;4.38;0.93;;;18.00;99.90;;;;;;4956788;29;20042;-87
2022/05/25 13:04:19;;;;;;;2.97;0.70;;;18.10;99.90;;;;;;4956921;29;20483;-88
2022/05/25 13:06:46;;;;;;;6.13;0.90;;;17.90;99.90;;;;;;4956985;29;20050;-86
2022/05/25 13:09:40;;;;;;;2.63;0.70;;;17.90;99.90;;;;;;4956787;29;20053;-87
2022/05/25 13:12:38;;;;;;;3.97;0.63;;;17.90;99.90;;;;;;4939664;29;20070;-86
2022/05/25 13:15:05;;;;;;;3.08;0.75;;;18.00;99.90;;;;;;4956425;29;20059;-87
2022/05/25 13:17:54;;;;;;;3.72;0.70;;;17.80;99.90;;;;;;4956877;29;20493;-88
2022/05/25 13:20:30;;;;;;;2.53;0.70;;;17.70;99.90;;;;;;4957071;29;20487;-86
2022/05/25 13:22:59;;;;;;;1.95;0.60;;;17.90;99.90;;;;;;4956509;29;20616;-87
2022/05/25 13:25:49;;;;;;;4.38;0.82;;;18.10;99.90;;;;;;4958032;29;20047;-92
2022/05/25 13:28:27;;;;;;;6.80;1.20;;;18.20;99.90;;;;;;4956849;29;20047;-85
2022/05/25 13:31:05;;;;;;;4.40;0.70;;;18.10;99.90;;;;;;4941143;29;20159;-87
2022/05/25 13:33:44;;;;;;;4.32;0.85;;;18.10;99.90;;;;;;4956601;29;20518;-87
2022/05/25 13:36:28;;;;;;;2.55;0.63;;;18.10;99.90;;;;;;4956511;29;20058;-88
2022/05/25 13:39:07;;;;;;;4.25;0.90;;;18.10;99.90;;;;;;4940430;29;20130;-87
2022/05/25 13:41:41;;;;;;;4.20;0.70;;;18.10;99.90;;;;;;4940286;29;20055;-88
2022/05/25 13:44:13;;;;;;;1.83;0.60;;;18.00;99.90;;;;;;4940111;29;20047;-87